sensor_id;sensor_type;location;lat;lon;timestamp;P1;durP1;ratioP1;P2;durP2;ratioP2
6105;SDS011;3083;51.508;7.966;2022-08-19T00:02:00;28.20;;;17.00;;
6105;SDS011;3083;51.508;7.966;2022-08-19T00:04:29;28.90;;;17.80;;
6105;SDS011;3083;51.508;7.966;2022-08-19T00:06:57;25.30;;;16.00;;
6105;SDS011;3083;51.508;7.966;2022-08-19T00:09:24;24.10;;;16.07;;
6105;SDS011;3083;51.508;7.966;2022-08-19T00:11:52;23.87;;;15.73;;
6105;SDS011;3083;51.508;7.966;2022-08-19T00:14:21;26.00;;;16.37;;
6105;SDS011;3083;51.508;7.966;2022-08-19T00:16:50;22.20;;;15.40;;
6105;SDS011;3083;51.508;7.966;2022-08-19T00:19:19;30.30;;;17.67;;
6105;SDS011;3083;51.508;7.966;2022-08-19T00:21:46;24.47;;;16.10;;
6105;SDS011;3083;51.508;7.966;2022-08-19T00:24:13;26.00;;;17.10;;
6105;SDS011;3083;51.508;7.966;2022-08-19T00:26:41;28.30;;;17.90;;
6105;SDS011;3083;51.508;7.966;2022-08-19T00:29:10;28.93;;;18.30;;
6105;SDS011;3083;51.508;7.966;2022-08-19T00:31:39;30.67;;;18.77;;
6105;SDS011;3083;51.508;7.966;2022-08-19T00:34:09;31.03;;;19.20;;
6105;SDS011;3083;51.508;7.966;2022-08-19T00:36:37;31.67;;;18.77;;
6105;SDS011;3083;51.508;7.966;2022-08-19T00:39:04;29.83;;;18.80;;
6105;SDS011;3083;51.508;7.966;2022-08-19T00:41:31;30.27;;;19.10;;
6105;SDS011;3083;51.508;7.966;2022-08-19T00:43:59;34.13;;;20.37;;
6105;SDS011;3083;51.508;7.966;2022-08-19T00:46:27;30.10;;;18.70;;
6105;SDS011;3083;51.508;7.966;2022-08-19T00:48:55;30.17;;;19.40;;
6105;SDS011;3083;51.508;7.966;2022-08-19T00:51:25;34.50;;;20.30;;
6105;SDS011;3083;51.508;7.966;2022-08-19T00:53:54;35.97;;;21.23;;
6105;SDS011;3083;51.508;7.966;2022-08-19T00:56:23;32.63;;;19.40;;
6105;SDS011;3083;51.508;7.966;2022-08-19T00:58:51;33.00;;;17.90;;
6105;SDS011;3083;51.508;7.966;2022-08-19T01:01:20;31.50;;;18.40;;
6105;SDS011;3083;51.508;7.966;2022-08-19T01:03:47;30.20;;;18.67;;
6105;SDS011;3083;51.508;7.966;2022-08-19T01:06:14;28.90;;;18.40;;
6105;SDS011;3083;51.508;7.966;2022-08-19T01:08:42;30.17;;;18.40;;
6105;SDS011;3083;51.508;7.966;2022-08-19T01:11:09;29.13;;;17.50;;
6105;SDS011;3083;51.508;7.966;2022-08-19T01:13:36;28.50;;;18.57;;
6105;SDS011;3083;51.508;7.966;2022-08-19T01:16:04;35.53;;;17.93;;
6105;SDS011;3083;51.508;7.966;2022-08-19T01:18:35;30.10;;;18.17;;
6105;SDS011;3083;51.508;7.966;2022-08-19T01:21:05;32.27;;;18.77;;
6105;SDS011;3083;51.508;7.966;2022-08-19T01:23:39;31.13;;;19.20;;
6105;SDS011;3083;51.508;7.966;2022-08-19T01:26:10;34.83;;;19.93;;
6105;SDS011;3083;51.508;7.966;2022-08-19T01:28:38;30.70;;;18.83;;
6105;SDS011;3083;51.508;7.966;2022-08-19T01:31:08;36.17;;;22.00;;
6105;SDS011;3083;51.508;7.966;2022-08-19T01:33:40;43.23;;;24.10;;
6105;SDS011;3083;51.508;7.966;2022-08-19T01:36:09;44.33;;;24.10;;
6105;SDS011;3083;51.508;7.966;2022-08-19T01:38:41;45.17;;;25.80;;
6105;SDS011;3083;51.508;7.966;2022-08-19T01:41:11;49.37;;;27.70;;
6105;SDS011;3083;51.508;7.966;2022-08-19T01:43:38;49.40;;;26.77;;
6105;SDS011;3083;51.508;7.966;2022-08-19T01:46:06;42.70;;;24.87;;
6105;SDS011;3083;51.508;7.966;2022-08-19T01:48:34;43.90;;;25.60;;
6105;SDS011;3083;51.508;7.966;2022-08-19T01:51:01;51.70;;;28.17;;
6105;SDS011;3083;51.508;7.966;2022-08-19T01:53:28;46.80;;;26.20;;
6105;SDS011;3083;51.508;7.966;2022-08-19T01:55:57;44.17;;;22.87;;
6105;SDS011;3083;51.508;7.966;2022-08-19T01:58:25;31.30;;;19.40;;
6105;SDS011;3083;51.508;7.966;2022-08-19T02:00:55;34.47;;;20.30;;
6105;SDS011;3083;51.508;7.966;2022-08-19T02:03:22;35.93;;;19.80;;
6105;SDS011;3083;51.508;7.966;2022-08-19T02:05:53;32.47;;;17.97;;
6105;SDS011;3083;51.508;7.966;2022-08-19T02:08:21;34.97;;;20.07;;
6105;SDS011;3083;51.508;7.966;2022-08-19T02:10:48;37.23;;;20.73;;
6105;SDS011;3083;51.508;7.966;2022-08-19T02:13:17;41.57;;;23.00;;
6105;SDS011;3083;51.508;7.966;2022-08-19T02:15:44;45.40;;;25.57;;
6105;SDS011;3083;51.508;7.966;2022-08-19T02:18:11;48.40;;;24.87;;
6105;SDS011;3083;51.508;7.966;2022-08-19T02:20:38;47.83;;;27.67;;
6105;SDS011;3083;51.508;7.966;2022-08-19T02:23:07;47.10;;;26.80;;
6105;SDS011;3083;51.508;7.966;2022-08-19T02:25:36;49.43;;;26.77;;
6105;SDS011;3083;51.508;7.966;2022-08-19T02:28:03;54.93;;;25.90;;
6105;SDS011;3083;51.508;7.966;2022-08-19T02:30:31;52.27;;;27.70;;
6105;SDS011;3083;51.508;7.966;2022-08-19T02:32:58;49.77;;;27.67;;
6105;SDS011;3083;51.508;7.966;2022-08-19T02:35:26;46.30;;;25.43;;
6105;SDS011;3083;51.508;7.966;2022-08-19T02:37:53;52.37;;;26.20;;
6105;SDS011;3083;51.508;7.966;2022-08-19T02:40:37;45.10;;;25.37;;
6105;SDS011;3083;51.508;7.966;2022-08-19T02:43:05;48.60;;;27.00;;
6105;SDS011;3083;51.508;7.966;2022-08-19T02:45:35;48.63;;;26.40;;
6105;SDS011;3083;51.508;7.966;2022-08-19T02:48:04;52.10;;;25.47;;
6105;SDS011;3083;51.508;7.966;2022-08-19T02:50:31;49.33;;;27.20;;
6105;SDS011;3083;51.508;7.966;2022-08-19T02:52:58;52.23;;;27.13;;
6105;SDS011;3083;51.508;7.966;2022-08-19T02:55:25;50.60;;;26.00;;
6105;SDS011;3083;51.508;7.966;2022-08-19T02:57:52;47.87;;;26.57;;
6105;SDS011;3083;51.508;7.966;2022-08-19T03:00:19;48.10;;;27.27;;
6105;SDS011;3083;51.508;7.966;2022-08-19T03:02:48;50.97;;;26.87;;
6105;SDS011;3083;51.508;7.966;2022-08-19T03:05:15;50.80;;;26.40;;
6105;SDS011;3083;51.508;7.966;2022-08-19T03:07:42;49.10;;;26.47;;
6105;SDS011;3083;51.508;7.966;2022-08-19T03:10:10;50.20;;;26.13;;
6105;SDS011;3083;51.508;7.966;2022-08-19T03:12:37;54.70;;;28.10;;
6105;SDS011;3083;51.508;7.966;2022-08-19T03:15:05;51.30;;;27.50;;
6105;SDS011;3083;51.508;7.966;2022-08-19T03:17:34;54.30;;;27.37;;
6105;SDS011;3083;51.508;7.966;2022-08-19T03:20:03;51.07;;;26.40;;
6105;SDS011;3083;51.508;7.966;2022-08-19T03:22:31;48.73;;;26.40;;
6105;SDS011;3083;51.508;7.966;2022-08-19T03:24:58;52.40;;;27.40;;
6105;SDS011;3083;51.508;7.966;2022-08-19T03:27:25;48.07;;;26.80;;
6105;SDS011;3083;51.508;7.966;2022-08-19T03:29:52;47.30;;;27.10;;
6105;SDS011;3083;51.508;7.966;2022-08-19T03:32:19;50.80;;;27.30;;
6105;SDS011;3083;51.508;7.966;2022-08-19T03:34:47;47.97;;;26.37;;
6105;SDS011;3083;51.508;7.966;2022-08-19T03:37:15;45.50;;;25.87;;
6105;SDS011;3083;51.508;7.966;2022-08-19T03:39:42;49.07;;;26.67;;
6105;SDS011;3083;51.508;7.966;2022-08-19T03:42:09;48.20;;;25.97;;
6105;SDS011;3083;51.508;7.966;2022-08-19T03:44:37;55.53;;;28.63;;
6105;SDS011;3083;51.508;7.966;2022-08-19T03:47:04;54.70;;;28.97;;
6105;SDS011;3083;51.508;7.966;2022-08-19T03:49:31;55.03;;;27.37;;
6105;SDS011;3083;51.508;7.966;2022-08-19T03:52:00;50.93;;;27.27;;
6105;SDS011;3083;51.508;7.966;2022-08-19T03:54:28;51.20;;;27.27;;
6105;SDS011;3083;51.508;7.966;2022-08-19T03:56:56;60.07;;;28.33;;
6105;SDS011;3083;51.508;7.966;2022-08-19T03:59:24;55.37;;;29.20;;
6105;SDS011;3083;51.508;7.966;2022-08-19T04:01:53;47.77;;;26.50;;
6105;SDS011;3083;51.508;7.966;2022-08-19T04:04:20;54.47;;;26.17;;
6105;SDS011;3083;51.508;7.966;2022-08-19T04:06:47;47.33;;;26.60;;
6105;SDS011;3083;51.508;7.966;2022-08-19T04:09:15;58.23;;;28.60;;
6105;SDS011;3083;51.508;7.966;2022-08-19T04:11:45;57.03;;;28.60;;
6105;SDS011;3083;51.508;7.966;2022-08-19T04:14:14;59.10;;;30.93;;
6105;SDS011;3083;51.508;7.966;2022-08-19T04:16:43;58.80;;;30.00;;
6105;SDS011;3083;51.508;7.966;2022-08-19T04:19:11;56.57;;;28.07;;
6105;SDS011;3083;51.508;7.966;2022-08-19T04:21:38;60.30;;;29.63;;
6105;SDS011;3083;51.508;7.966;2022-08-19T04:24:06;64.20;;;28.10;;
6105;SDS011;3083;51.508;7.966;2022-08-19T04:26:35;54.97;;;27.70;;
6105;SDS011;3083;51.508;7.966;2022-08-19T04:29:05;57.53;;;27.70;;
6105;SDS011;3083;51.508;7.966;2022-08-19T04:31:33;53.30;;;28.17;;
6105;SDS011;3083;51.508;7.966;2022-08-19T04:34:02;56.60;;;28.33;;
6105;SDS011;3083;51.508;7.966;2022-08-19T04:36:34;56.20;;;29.90;;
6105;SDS011;3083;51.508;7.966;2022-08-19T04:39:04;54.87;;;28.37;;
6105;SDS011;3083;51.508;7.966;2022-08-19T04:41:33;52.93;;;28.10;;
6105;SDS011;3083;51.508;7.966;2022-08-19T04:44:19;53.03;;;28.43;;
6105;SDS011;3083;51.508;7.966;2022-08-19T04:46:47;56.00;;;29.50;;
6105;SDS011;3083;51.508;7.966;2022-08-19T04:49:16;59.53;;;28.47;;
6105;SDS011;3083;51.508;7.966;2022-08-19T04:51:45;65.03;;;31.20;;
6105;SDS011;3083;51.508;7.966;2022-08-19T04:54:13;61.40;;;30.50;;
6105;SDS011;3083;51.508;7.966;2022-08-19T04:56:40;66.50;;;31.93;;
6105;SDS011;3083;51.508;7.966;2022-08-19T04:59:07;50.07;;;27.60;;
6105;SDS011;3083;51.508;7.966;2022-08-19T05:01:36;50.27;;;27.37;;
6105;SDS011;3083;51.508;7.966;2022-08-19T05:04:04;63.40;;;30.80;;
6105;SDS011;3083;51.508;7.966;2022-08-19T05:06:33;70.57;;;33.23;;
6105;SDS011;3083;51.508;7.966;2022-08-19T05:09:00;66.70;;;32.57;;
6105;SDS011;3083;51.508;7.966;2022-08-19T05:11:30;66.53;;;32.10;;
6105;SDS011;3083;51.508;7.966;2022-08-19T05:13:59;68.83;;;31.53;;
6105;SDS011;3083;51.508;7.966;2022-08-19T05:16:27;75.70;;;33.70;;
6105;SDS011;3083;51.508;7.966;2022-08-19T05:18:55;74.33;;;34.07;;
6105;SDS011;3083;51.508;7.966;2022-08-19T05:21:40;64.20;;;30.80;;
6105;SDS011;3083;51.508;7.966;2022-08-19T05:24:26;52.87;;;27.00;;
6105;SDS011;3083;51.508;7.966;2022-08-19T05:26:54;52.17;;;28.27;;
6105;SDS011;3083;51.508;7.966;2022-08-19T05:29:23;59.33;;;29.60;;
6105;SDS011;3083;51.508;7.966;2022-08-19T05:31:52;65.03;;;32.23;;
6105;SDS011;3083;51.508;7.966;2022-08-19T05:34:22;60.17;;;30.40;;
6105;SDS011;3083;51.508;7.966;2022-08-19T05:36:51;62.83;;;30.87;;
6105;SDS011;3083;51.508;7.966;2022-08-19T05:39:21;62.67;;;32.60;;
6105;SDS011;3083;51.508;7.966;2022-08-19T05:41:49;48.43;;;28.00;;
6105;SDS011;3083;51.508;7.966;2022-08-19T05:44:19;46.23;;;25.70;;
6105;SDS011;3083;51.508;7.966;2022-08-19T05:46:47;49.87;;;27.77;;
6105;SDS011;3083;51.508;7.966;2022-08-19T05:49:15;43.63;;;26.50;;
6105;SDS011;3083;51.508;7.966;2022-08-19T05:51:43;46.10;;;27.80;;
6105;SDS011;3083;51.508;7.966;2022-08-19T05:54:10;44.03;;;27.30;;
6105;SDS011;3083;51.508;7.966;2022-08-19T05:56:38;42.93;;;25.10;;
6105;SDS011;3083;51.508;7.966;2022-08-19T05:59:06;35.93;;;22.97;;
6105;SDS011;3083;51.508;7.966;2022-08-19T06:01:36;38.43;;;23.97;;
6105;SDS011;3083;51.508;7.966;2022-08-19T06:04:03;38.00;;;25.20;;
6105;SDS011;3083;51.508;7.966;2022-08-19T06:06:31;41.60;;;25.40;;
6105;SDS011;3083;51.508;7.966;2022-08-19T06:09:01;38.90;;;25.47;;
6105;SDS011;3083;51.508;7.966;2022-08-19T06:11:33;34.40;;;22.83;;
6105;SDS011;3083;51.508;7.966;2022-08-19T06:14:03;36.30;;;22.97;;
6105;SDS011;3083;51.508;7.966;2022-08-19T06:16:33;34.37;;;22.07;;
6105;SDS011;3083;51.508;7.966;2022-08-19T06:19:01;33.33;;;21.90;;
6105;SDS011;3083;51.508;7.966;2022-08-19T06:21:32;40.43;;;21.70;;
6105;SDS011;3083;51.508;7.966;2022-08-19T06:24:01;31.93;;;21.23;;
6105;SDS011;3083;51.508;7.966;2022-08-19T06:26:29;30.93;;;20.33;;
6105;SDS011;3083;51.508;7.966;2022-08-19T06:28:56;29.67;;;20.67;;
6105;SDS011;3083;51.508;7.966;2022-08-19T06:31:25;41.03;;;21.80;;
6105;SDS011;3083;51.508;7.966;2022-08-19T06:33:53;32.40;;;22.33;;
6105;SDS011;3083;51.508;7.966;2022-08-19T06:36:21;32.10;;;22.30;;
6105;SDS011;3083;51.508;7.966;2022-08-19T06:38:52;34.70;;;22.57;;
6105;SDS011;3083;51.508;7.966;2022-08-19T06:41:20;35.20;;;22.57;;
6105;SDS011;3083;51.508;7.966;2022-08-19T06:43:47;36.93;;;23.60;;
6105;SDS011;3083;51.508;7.966;2022-08-19T06:46:15;33.67;;;23.77;;
6105;SDS011;3083;51.508;7.966;2022-08-19T06:48:43;34.70;;;23.23;;
6105;SDS011;3083;51.508;7.966;2022-08-19T06:51:10;32.90;;;22.60;;
6105;SDS011;3083;51.508;7.966;2022-08-19T06:53:40;32.33;;;22.60;;
6105;SDS011;3083;51.508;7.966;2022-08-19T06:56:12;33.33;;;22.23;;
6105;SDS011;3083;51.508;7.966;2022-08-19T06:58:41;35.63;;;24.13;;
6105;SDS011;3083;51.508;7.966;2022-08-19T07:01:08;34.00;;;22.70;;
6105;SDS011;3083;51.508;7.966;2022-08-19T07:03:36;31.40;;;23.07;;
6105;SDS011;3083;51.508;7.966;2022-08-19T07:06:04;33.63;;;21.50;;
6105;SDS011;3083;51.508;7.966;2022-08-19T07:08:33;34.13;;;22.20;;
6105;SDS011;3083;51.508;7.966;2022-08-19T07:11:06;33.17;;;23.43;;
6105;SDS011;3083;51.508;7.966;2022-08-19T07:13:34;33.13;;;22.77;;
6105;SDS011;3083;51.508;7.966;2022-08-19T07:16:04;30.90;;;20.93;;
6105;SDS011;3083;51.508;7.966;2022-08-19T07:18:31;28.70;;;21.60;;
6105;SDS011;3083;51.508;7.966;2022-08-19T07:21:02;27.40;;;19.47;;
6105;SDS011;3083;51.508;7.966;2022-08-19T07:23:31;29.83;;;20.07;;
6105;SDS011;3083;51.508;7.966;2022-08-19T07:25:58;33.20;;;20.33;;
6105;SDS011;3083;51.508;7.966;2022-08-19T07:28:30;26.70;;;19.90;;
6105;SDS011;3083;51.508;7.966;2022-08-19T07:30:57;28.20;;;20.00;;
6105;SDS011;3083;51.508;7.966;2022-08-19T07:33:25;26.60;;;20.27;;
6105;SDS011;3083;51.508;7.966;2022-08-19T07:35:52;27.00;;;19.90;;
6105;SDS011;3083;51.508;7.966;2022-08-19T07:38:20;29.77;;;20.47;;
6105;SDS011;3083;51.508;7.966;2022-08-19T07:40:47;23.67;;;18.17;;
6105;SDS011;3083;51.508;7.966;2022-08-19T07:43:16;26.33;;;18.60;;
6105;SDS011;3083;51.508;7.966;2022-08-19T07:45:49;24.87;;;17.40;;
6105;SDS011;3083;51.508;7.966;2022-08-19T07:48:16;24.53;;;16.60;;
6105;SDS011;3083;51.508;7.966;2022-08-19T07:50:44;20.87;;;15.93;;
6105;SDS011;3083;51.508;7.966;2022-08-19T07:53:13;21.17;;;17.03;;
6105;SDS011;3083;51.508;7.966;2022-08-19T07:55:40;23.93;;;15.93;;
6105;SDS011;3083;51.508;7.966;2022-08-19T07:58:07;22.33;;;15.80;;
6105;SDS011;3083;51.508;7.966;2022-08-19T08:00:34;21.13;;;15.10;;
6105;SDS011;3083;51.508;7.966;2022-08-19T08:03:01;21.97;;;14.93;;
6105;SDS011;3083;51.508;7.966;2022-08-19T08:05:28;21.27;;;14.70;;
6105;SDS011;3083;51.508;7.966;2022-08-19T08:08:15;19.50;;;13.90;;
6105;SDS011;3083;51.508;7.966;2022-08-19T08:11:01;18.17;;;13.37;;
6105;SDS011;3083;51.508;7.966;2022-08-19T08:13:28;18.87;;;13.93;;
6105;SDS011;3083;51.508;7.966;2022-08-19T08:15:58;17.73;;;14.27;;
6105;SDS011;3083;51.508;7.966;2022-08-19T08:18:25;21.90;;;15.27;;
6105;SDS011;3083;51.508;7.966;2022-08-19T08:20:52;24.90;;;15.27;;
6105;SDS011;3083;51.508;7.966;2022-08-19T08:23:20;18.93;;;14.33;;
6105;SDS011;3083;51.508;7.966;2022-08-19T08:25:51;22.40;;;14.80;;
6105;SDS011;3083;51.508;7.966;2022-08-19T08:28:21;18.87;;;14.20;;
6105;SDS011;3083;51.508;7.966;2022-08-19T08:30:48;19.60;;;13.30;;
6105;SDS011;3083;51.508;7.966;2022-08-19T08:33:17;17.57;;;13.83;;
6105;SDS011;3083;51.508;7.966;2022-08-19T08:35:45;21.93;;;14.93;;
6105;SDS011;3083;51.508;7.966;2022-08-19T08:38:12;21.90;;;13.70;;
6105;SDS011;3083;51.508;7.966;2022-08-19T08:40:44;21.93;;;14.10;;
6105;SDS011;3083;51.508;7.966;2022-08-19T08:43:20;19.20;;;13.00;;
6105;SDS011;3083;51.508;7.966;2022-08-19T08:45:52;18.53;;;12.30;;
6105;SDS011;3083;51.508;7.966;2022-08-19T08:48:24;17.23;;;11.80;;
6105;SDS011;3083;51.508;7.966;2022-08-19T08:50:57;17.07;;;13.07;;
6105;SDS011;3083;51.508;7.966;2022-08-19T08:53:27;16.00;;;13.70;;
6105;SDS011;3083;51.508;7.966;2022-08-19T08:55:58;17.83;;;14.50;;
6105;SDS011;3083;51.508;7.966;2022-08-19T08:58:27;20.40;;;13.70;;
6105;SDS011;3083;51.508;7.966;2022-08-19T09:00:59;17.60;;;13.83;;
6105;SDS011;3083;51.508;7.966;2022-08-19T09:03:26;19.20;;;15.60;;
6105;SDS011;3083;51.508;7.966;2022-08-19T09:05:56;20.20;;;15.70;;
6105;SDS011;3083;51.508;7.966;2022-08-19T09:08:31;17.97;;;15.50;;
6105;SDS011;3083;51.508;7.966;2022-08-19T09:11:07;21.73;;;15.40;;
6105;SDS011;3083;51.508;7.966;2022-08-19T09:13:38;19.23;;;15.53;;
6105;SDS011;3083;51.508;7.966;2022-08-19T09:16:12;19.20;;;15.37;;
6105;SDS011;3083;51.508;7.966;2022-08-19T09:18:43;17.70;;;15.00;;
6105;SDS011;3083;51.508;7.966;2022-08-19T09:21:11;20.03;;;14.33;;
6105;SDS011;3083;51.508;7.966;2022-08-19T09:23:39;26.17;;;19.20;;
6105;SDS011;3083;51.508;7.966;2022-08-19T09:26:08;27.93;;;20.00;;
6105;SDS011;3083;51.508;7.966;2022-08-19T09:28:38;21.50;;;18.87;;
6105;SDS011;3083;51.508;7.966;2022-08-19T09:31:07;20.60;;;18.40;;
6105;SDS011;3083;51.508;7.966;2022-08-19T09:33:34;21.63;;;19.30;;
6105;SDS011;3083;51.508;7.966;2022-08-19T09:36:02;24.73;;;20.27;;
6105;SDS011;3083;51.508;7.966;2022-08-19T09:38:32;21.87;;;19.10;;
6105;SDS011;3083;51.508;7.966;2022-08-19T09:41:03;18.73;;;16.73;;
6105;SDS011;3083;51.508;7.966;2022-08-19T09:43:32;20.33;;;16.83;;
6105;SDS011;3083;51.508;7.966;2022-08-19T09:46:01;17.50;;;15.67;;
6105;SDS011;3083;51.508;7.966;2022-08-19T09:48:30;25.17;;;17.20;;
6105;SDS011;3083;51.508;7.966;2022-08-19T09:51:02;18.80;;;15.87;;
6105;SDS011;3083;51.508;7.966;2022-08-19T09:53:30;17.90;;;15.60;;
6105;SDS011;3083;51.508;7.966;2022-08-19T09:55:57;19.70;;;16.47;;
6105;SDS011;3083;51.508;7.966;2022-08-19T09:58:24;16.83;;;13.30;;
6105;SDS011;3083;51.508;7.966;2022-08-19T10:00:57;12.97;;;11.67;;
6105;SDS011;3083;51.508;7.966;2022-08-19T10:03:25;14.87;;;12.03;;
6105;SDS011;3083;51.508;7.966;2022-08-19T10:05:53;12.97;;;11.40;;
6105;SDS011;3083;51.508;7.966;2022-08-19T10:08:22;12.87;;;11.53;;
6105;SDS011;3083;51.508;7.966;2022-08-19T10:10:52;14.52;;;11.88;;
6105;SDS011;3083;51.508;7.966;2022-08-19T10:13:20;14.60;;;12.50;;
6105;SDS011;3083;51.508;7.966;2022-08-19T10:15:50;13.90;;;12.40;;
6105;SDS011;3083;51.508;7.966;2022-08-19T10:18:19;10.77;;;9.70;;
6105;SDS011;3083;51.508;7.966;2022-08-19T10:20:47;13.13;;;10.40;;
6105;SDS011;3083;51.508;7.966;2022-08-19T10:23:15;13.57;;;12.18;;
6105;SDS011;3083;51.508;7.966;2022-08-19T10:25:43;20.20;;;13.40;;
6105;SDS011;3083;51.508;7.966;2022-08-19T10:28:10;14.13;;;11.53;;
6105;SDS011;3083;51.508;7.966;2022-08-19T10:30:37;11.73;;;10.55;;
6105;SDS011;3083;51.508;7.966;2022-08-19T10:33:05;14.57;;;10.30;;
6105;SDS011;3083;51.508;7.966;2022-08-19T10:35:33;14.03;;;12.60;;
6105;SDS011;3083;51.508;7.966;2022-08-19T10:38:01;16.90;;;13.35;;
6105;SDS011;3083;51.508;7.966;2022-08-19T10:40:28;14.30;;;12.80;;
6105;SDS011;3083;51.508;7.966;2022-08-19T10:42:55;12.52;;;11.30;;
6105;SDS011;3083;51.508;7.966;2022-08-19T10:45:22;14.77;;;12.55;;
6105;SDS011;3083;51.508;7.966;2022-08-19T10:47:50;16.42;;;11.23;;
6105;SDS011;3083;51.508;7.966;2022-08-19T10:50:18;19.38;;;17.48;;
6105;SDS011;3083;51.508;7.966;2022-08-19T10:53:05;19.05;;;17.05;;
6105;SDS011;3083;51.508;7.966;2022-08-19T10:55:34;19.05;;;17.08;;
6105;SDS011;3083;51.508;7.966;2022-08-19T10:58:19;16.63;;;14.93;;
6105;SDS011;3083;51.508;7.966;2022-08-19T11:00:51;18.02;;;14.98;;
6105;SDS011;3083;51.508;7.966;2022-08-19T11:03:19;18.90;;;15.95;;
6105;SDS011;3083;51.508;7.966;2022-08-19T11:05:51;20.52;;;18.08;;
6105;SDS011;3083;51.508;7.966;2022-08-19T11:08:25;17.15;;;15.02;;
6105;SDS011;3083;51.508;7.966;2022-08-19T11:10:53;18.20;;;16.45;;
6105;SDS011;3083;51.508;7.966;2022-08-19T11:13:21;17.88;;;16.10;;
6105;SDS011;3083;51.508;7.966;2022-08-19T11:15:56;19.60;;;17.60;;
6105;SDS011;3083;51.508;7.966;2022-08-19T11:18:24;20.15;;;18.15;;
6105;SDS011;3083;51.508;7.966;2022-08-19T11:20:51;19.48;;;17.48;;
6105;SDS011;3083;51.508;7.966;2022-08-19T11:23:18;20.85;;;18.42;;
6105;SDS011;3083;51.508;7.966;2022-08-19T11:25:46;19.88;;;17.88;;
6105;SDS011;3083;51.508;7.966;2022-08-19T11:28:13;18.65;;;16.73;;
6105;SDS011;3083;51.508;7.966;2022-08-19T11:30:40;17.48;;;15.88;;
6105;SDS011;3083;51.508;7.966;2022-08-19T11:33:07;19.48;;;17.58;;
6105;SDS011;3083;51.508;7.966;2022-08-19T11:35:38;17.25;;;15.55;;
6105;SDS011;3083;51.508;7.966;2022-08-19T11:38:05;21.35;;;17.30;;
6105;SDS011;3083;51.508;7.966;2022-08-19T11:40:32;17.83;;;14.48;;
6105;SDS011;3083;51.508;7.966;2022-08-19T11:43:00;13.68;;;12.23;;
6105;SDS011;3083;51.508;7.966;2022-08-19T11:45:27;13.47;;;12.13;;
6105;SDS011;3083;51.508;7.966;2022-08-19T11:47:54;15.00;;;13.60;;
6105;SDS011;3083;51.508;7.966;2022-08-19T11:50:23;16.10;;;14.60;;
6105;SDS011;3083;51.508;7.966;2022-08-19T11:52:53;16.20;;;14.50;;
6105;SDS011;3083;51.508;7.966;2022-08-19T11:55:21;17.50;;;13.27;;
6105;SDS011;3083;51.508;7.966;2022-08-19T11:57:48;16.93;;;14.30;;
6105;SDS011;3083;51.508;7.966;2022-08-19T12:00:17;17.05;;;15.45;;
6105;SDS011;3083;51.508;7.966;2022-08-19T12:02:44;16.73;;;14.90;;
6105;SDS011;3083;51.508;7.966;2022-08-19T12:05:11;17.00;;;15.20;;
6105;SDS011;3083;51.508;7.966;2022-08-19T12:07:38;16.80;;;15.10;;
6105;SDS011;3083;51.508;7.966;2022-08-19T12:10:08;14.77;;;13.33;;
6105;SDS011;3083;51.508;7.966;2022-08-19T12:12:36;19.80;;;13.03;;
6105;SDS011;3083;51.508;7.966;2022-08-19T12:15:08;18.40;;;13.93;;
6105;SDS011;3083;51.508;7.966;2022-08-19T12:17:37;18.83;;;14.53;;
6105;SDS011;3083;51.508;7.966;2022-08-19T12:20:05;19.50;;;14.27;;
6105;SDS011;3083;51.508;7.966;2022-08-19T12:22:33;16.97;;;14.20;;
6105;SDS011;3083;51.508;7.966;2022-08-19T12:25:01;17.10;;;14.23;;
6105;SDS011;3083;51.508;7.966;2022-08-19T12:27:28;20.27;;;16.20;;
6105;SDS011;3083;51.508;7.966;2022-08-19T12:29:55;18.83;;;16.10;;
6105;SDS011;3083;51.508;7.966;2022-08-19T12:32:23;17.27;;;15.20;;
6105;SDS011;3083;51.508;7.966;2022-08-19T12:34:53;19.53;;;12.70;;
6105;SDS011;3083;51.508;7.966;2022-08-19T12:37:20;12.87;;;11.57;;
6105;SDS011;3083;51.508;7.966;2022-08-19T12:39:47;15.83;;;11.67;;
6105;SDS011;3083;51.508;7.966;2022-08-19T12:42:14;16.37;;;11.33;;
6105;SDS011;3083;51.508;7.966;2022-08-19T12:44:42;16.83;;;12.87;;
6105;SDS011;3083;51.508;7.966;2022-08-19T12:47:11;13.40;;;10.40;;
6105;SDS011;3083;51.508;7.966;2022-08-19T12:49:39;13.77;;;10.87;;
6105;SDS011;3083;51.508;7.966;2022-08-19T12:52:08;18.37;;;11.30;;
6105;SDS011;3083;51.508;7.966;2022-08-19T12:54:36;14.23;;;12.37;;
6105;SDS011;3083;51.508;7.966;2022-08-19T12:57:04;15.17;;;13.10;;
6105;SDS011;3083;51.508;7.966;2022-08-19T12:59:32;15.53;;;13.20;;
6105;SDS011;3083;51.508;7.966;2022-08-19T13:02:01;15.30;;;13.07;;
6105;SDS011;3083;51.508;7.966;2022-08-19T13:04:30;18.90;;;13.60;;
6105;SDS011;3083;51.508;7.966;2022-08-19T13:06:57;15.30;;;13.17;;
6105;SDS011;3083;51.508;7.966;2022-08-19T13:09:26;17.23;;;14.00;;
6105;SDS011;3083;51.508;7.966;2022-08-19T13:11:53;19.40;;;14.13;;
6105;SDS011;3083;51.508;7.966;2022-08-19T13:14:21;17.13;;;14.13;;
6105;SDS011;3083;51.508;7.966;2022-08-19T13:16:48;17.40;;;15.13;;
6105;SDS011;3083;51.508;7.966;2022-08-19T13:19:15;15.57;;;13.93;;
6105;SDS011;3083;51.508;7.966;2022-08-19T13:21:45;13.40;;;12.10;;
6105;SDS011;3083;51.508;7.966;2022-08-19T13:24:16;18.90;;;12.83;;
6105;SDS011;3083;51.508;7.966;2022-08-19T13:26:44;15.67;;;11.90;;
6105;SDS011;3083;51.508;7.966;2022-08-19T13:29:12;13.13;;;11.73;;
6105;SDS011;3083;51.508;7.966;2022-08-19T13:31:56;12.67;;;11.30;;
6105;SDS011;3083;51.508;7.966;2022-08-19T13:34:41;19.73;;;12.27;;
6105;SDS011;3083;51.508;7.966;2022-08-19T13:37:09;16.73;;;12.70;;
6105;SDS011;3083;51.508;7.966;2022-08-19T13:39:36;13.20;;;11.80;;
6105;SDS011;3083;51.508;7.966;2022-08-19T13:42:05;15.67;;;12.23;;
6105;SDS011;3083;51.508;7.966;2022-08-19T13:44:33;18.43;;;11.93;;
6105;SDS011;3083;51.508;7.966;2022-08-19T13:47:01;12.10;;;10.90;;
6105;SDS011;3083;51.508;7.966;2022-08-19T13:49:32;11.17;;;9.97;;
6105;SDS011;3083;51.508;7.966;2022-08-19T13:52:01;12.27;;;10.77;;
6105;SDS011;3083;51.508;7.966;2022-08-19T13:54:28;12.53;;;11.23;;
6105;SDS011;3083;51.508;7.966;2022-08-19T13:56:55;12.00;;;10.60;;
6105;SDS011;3083;51.508;7.966;2022-08-19T13:59:24;14.30;;;11.10;;
6105;SDS011;3083;51.508;7.966;2022-08-19T14:01:51;13.37;;;11.13;;
6105;SDS011;3083;51.508;7.966;2022-08-19T14:04:18;14.63;;;11.47;;
6105;SDS011;3083;51.508;7.966;2022-08-19T14:06:45;13.33;;;11.60;;
6105;SDS011;3083;51.508;7.966;2022-08-19T14:09:12;16.10;;;12.37;;
6105;SDS011;3083;51.508;7.966;2022-08-19T14:11:39;13.33;;;12.00;;
6105;SDS011;3083;51.508;7.966;2022-08-19T14:14:06;13.47;;;11.60;;
6105;SDS011;3083;51.508;7.966;2022-08-19T14:16:34;13.93;;;12.10;;
6105;SDS011;3083;51.508;7.966;2022-08-19T14:19:01;18.60;;;12.60;;
6105;SDS011;3083;51.508;7.966;2022-08-19T14:21:28;13.73;;;11.20;;
6105;SDS011;3083;51.508;7.966;2022-08-19T14:23:55;14.80;;;12.67;;
6105;SDS011;3083;51.508;7.966;2022-08-19T14:26:22;14.47;;;12.97;;
6105;SDS011;3083;51.508;7.966;2022-08-19T14:28:49;14.70;;;12.60;;
6105;SDS011;3083;51.508;7.966;2022-08-19T14:31:17;13.13;;;11.57;;
6105;SDS011;3083;51.508;7.966;2022-08-19T14:33:47;16.07;;;14.37;;
6105;SDS011;3083;51.508;7.966;2022-08-19T14:36:16;15.03;;;13.43;;
6105;SDS011;3083;51.508;7.966;2022-08-19T14:38:43;19.30;;;15.23;;
6105;SDS011;3083;51.508;7.966;2022-08-19T14:41:11;15.87;;;14.20;;
6105;SDS011;3083;51.508;7.966;2022-08-19T14:43:41;16.60;;;14.80;;
6105;SDS011;3083;51.508;7.966;2022-08-19T14:46:10;17.00;;;14.60;;
6105;SDS011;3083;51.508;7.966;2022-08-19T14:48:38;14.30;;;12.90;;
6105;SDS011;3083;51.508;7.966;2022-08-19T14:51:06;15.50;;;13.90;;
6105;SDS011;3083;51.508;7.966;2022-08-19T14:53:34;15.17;;;13.50;;
6105;SDS011;3083;51.508;7.966;2022-08-19T14:56:01;17.93;;;14.83;;
6105;SDS011;3083;51.508;7.966;2022-08-19T14:58:34;16.57;;;14.90;;